Saturday, April 19, 2014, 8:39 PM EDT

KUNV, State College, University Park Airport

Location: State College, PA, United States Lat: 40.85
Local Time: 8:39 PM EDT ( 0:39 GMT) Lon: -77.85
Time Zone: US/Eastern Elev: 1240 ft

Show me the last for .
Show Decoded

2014-04-19 19:53 METAR KUNV 192353Z 06007KT 10SM SKC 13/M04 A3029 =
2014-04-19 18:53 METAR KUNV 192253Z 07006KT 10SM SKC 15/M05 A3028 =
2014-04-19 17:53 METAR KUNV 192153Z 09008KT 10SM SKC 17/M04 A3027 =
2014-04-19 16:50 METAR KUNV 192050Z 04010KT 10SM SKC 17/M07 A3027 =
2014-04-19 15:53 METAR KUNV 191953Z 04010KT 10SM SKC 17/M06 A3027 =
2014-04-19 14:50 METAR KUNV 191850Z 04010KT 10SM SKC 16/M06 A3028 =
2014-04-19 13:53 METAR KUNV 191753Z 04010KT 10SM SKC 15/M06 A3030 =
2014-04-19 12:53 METAR KUNV 191653Z 04010KT 10SM SKC 15/M06 A3029 =
2014-04-19 11:53 METAR KUNV 191553Z 06008KT 10SM SKC 14/M06 A3032 =
2014-04-19 10:53 METAR KUNV 191453Z 03010KT 10SM SKC 13/M04 A3033 =
2014-04-19 09:53 METAR KUNV 191353Z 03005KT 10SM SKC 12/M03 A3034 =
2014-04-19 08:53 METAR KUNV 191253Z 05003KT 10SM SKC 09/01 A3032 =
2014-04-19 07:53 METAR KUNV 191153Z 00000KT 10SM SKC 06/01 A3032 =
2014-04-19 06:53 METAR KUNV 191053Z 00000KT 10SM SKC 03/00 A3029 =
2014-04-19 05:53 METAR KUNV 190953Z 00000KT 10SM SKC 05/00 A3026 =
2014-04-19 05:35 METAR KUNV 190935Z AUTO 00000KT 10SM CLR 05/00 A3026 RMK AO2 T00461003 =
2014-04-19 05:15 METAR KUNV 190915Z AUTO 00000KT 10SM CLR 05/00 A3026 RMK AO2 T00451005 =
2014-04-19 04:55 METAR KUNV 190855Z AUTO 00000KT 10SM CLR 05/00 A3026 RMK AO2 T00501003 =
2014-04-19 04:35 METAR KUNV 190835Z AUTO 01003KT 10SM CLR 05/00 A3025 RMK AO2 T00511003 =
2014-04-19 04:15 METAR KUNV 190815Z AUTO 00000KT 10SM CLR 05/M01 A3025 RMK AO2 T00481007 =
2014-04-19 03:55 METAR KUNV 190755Z AUTO 00000KT 10SM CLR 05/00 A3025 RMK AO2 T00531005 =
2014-04-19 03:35 METAR KUNV 190735Z AUTO 00000KT 10SM SCT070 06/00 A3024 RMK AO2 T00581005 =
2014-04-19 03:15 METAR KUNV 190715Z AUTO 00000KT 10SM SCT070 06/00 A3025 RMK AO2 T00641005 =
2014-04-19 02:55 METAR KUNV 190655Z AUTO 00000KT 10SM CLR 07/M01 A3025 RMK AO2 T00661007 =
2014-04-19 02:35 METAR KUNV 190635Z AUTO 00000KT 10SM CLR 07/00 A3023 RMK AO2 T00731005 =
2014-04-19 02:15 METAR KUNV 190615Z AUTO 00000KT 10SM CLR 08/M01 A3023 RMK AO2 T00771008 =
2014-04-19 01:55 METAR KUNV 190555Z AUTO 00000KT 10SM CLR 08/M01 A3023 RMK AO2 T00751008 10124
                 20070 =
2014-04-19 01:35 METAR KUNV 190535Z AUTO 00000KT 10SM CLR 07/M01 A3023 RMK AO2 T00721006 =
2014-04-19 01:15 METAR KUNV 190515Z AUTO 23004KT 10SM CLR 09/M01 A3024 RMK AO2 T00861007 =
2014-04-19 00:55 METAR KUNV 190455Z AUTO 26005KT 10SM CLR 09/M01 A3024 RMK AO2 T00871010 =
2014-04-19 00:35 METAR KUNV 190435Z AUTO 24005KT 10SM CLR 09/M01 A3023 RMK AO2 T00931011 =
2014-04-19 00:15 METAR KUNV 190415Z AUTO 24003KT 10SM CLR 08/M01 A3023 RMK AO2 T00811010 =
2014-04-18 23:55 METAR KUNV 190355Z AUTO 00000KT 10SM CLR 09/M01 A3023 RMK AO2 T00891012
                 401510016 =
2014-04-18 23:35 METAR KUNV 190335Z AUTO 24005KT 10SM CLR 09/M01 A3023 RMK AO2 T00891010 =
2014-04-18 23:15 METAR KUNV 190315Z AUTO 22005KT 10SM CLR 09/M01 A3023 RMK AO2 T00861007 =
2014-04-18 22:55 METAR KUNV 190255Z AUTO 22006KT 10SM CLR 09/M01 A3023 RMK AO2 T00921010 =
2014-04-18 22:35 METAR KUNV 190235Z AUTO 22005KT 10SM CLR 10/M01 A3024 RMK AO2 T00951010 =
2014-04-18 22:15 METAR KUNV 190215Z AUTO 22006KT 10SM CLR 10/M01 A3023 RMK AO2 T00951011 =
2014-04-18 21:55 METAR KUNV 190155Z AUTO 22005KT 10SM CLR 09/M01 A3023 RMK AO2 T00921009 =
2014-04-18 20:53 METAR KUNV 190053Z 20004KT 10SM SKC 11/01 A3023 =

Support USWX by starting your Amazon purchase here.